Time;durP1;ratioP1;P1;durP2;ratioP2;P2;SDS_P1;SDS_P2;PMS_P1;PMS_P2;Temp;Humidity;BMP_temperature;BMP_pressure;BME280_temperature;BME280_humidity;BME280_pressure;Samples;Min_cycle;Max_cycle;Signal;HPM_P1;HPM_P2
2022/01/27 00:05:18;;;;;;;;;;;;;;;-5.29;71.67;99247.06;5040218;28;19925;-78
2022/01/27 00:07:41;;;;;;;;;;;;;;;-5.39;71.45;99247.38;5058291;28;20355;-79
2022/01/27 00:12:51;;;;;;;;;;;;;;;-5.26;71.20;99248.91;5025715;28;20351;-79
2022/01/27 00:15:17;;;;;;;;;;;;;;;-5.30;71.22;99252.91;5028315;28;19963;-79
2022/01/27 00:17:46;;;;;;;;;;;;;;;-5.39;70.82;99249.91;5045019;28;20004;-79
2022/01/27 00:20:12;;;;;;;;;;;;;;;-5.49;70.96;99250.22;5027835;28;19948;-78
2022/01/27 00:22:38;;;;;;;;;;;;;;;-5.42;71.64;99247.22;5045046;28;19928;-78
2022/01/27 00:25:05;;;;;;;;;;;;;;;-5.39;71.18;99253.31;5028601;28;19996;-79
2022/01/27 00:27:31;;;;;;;;;;;;;;;-5.43;70.78;99250.53;5044181;28;19928;-78
2022/01/27 00:29:56;;;;;;;;;;;;;;;-5.44;70.08;99248.81;5028056;28;19983;-78
2022/01/27 00:32:22;;;;;;;;;;;;;;;-5.41;70.01;99248.94;5013011;28;20383;-79
2022/01/27 00:34:47;;;;;;;;;;;;;;;-5.37;70.24;99251.72;5013862;28;19917;-79
2022/01/27 00:37:13;;;;;;;;;;;;;;;-5.40;70.38;99246.53;5049010;28;19917;-79
2022/01/27 00:39:38;;;;;;;;;;;;;;;-5.40;71.71;99240.59;5015418;28;19924;-79
2022/01/27 00:42:04;;;;;;;;;;;;;;;-5.29;71.36;99243.66;5032074;28;20017;-79
2022/01/27 00:44:29;;;;;;;;;;;;;;;-5.25;71.52;99240.50;5048759;28;20479;-78
2022/01/27 00:46:55;;;;;;;;;;;;;;;-5.22;71.51;99233.97;5016802;28;19921;-78
2022/01/27 00:49:20;;;;;;;;;;;;;;;-5.26;71.84;99234.59;5048665;28;20347;-79
2022/01/27 00:51:47;;;;;;;;;;;;;;;-5.37;72.47;99234.03;5032191;28;19925;-78
2022/01/27 00:54:24;;;;;;;;;;;;;;;-5.38;72.66;99229.75;5016307;28;19913;-79
2022/01/27 01:01:50;;;;;;;;;;;;;;;-5.52;73.18;99218.06;5031219;28;20456;-79
2022/01/27 01:04:23;;;;;;;;;;;;;;;-5.45;73.69;99221.78;5030536;28;20384;-78
2022/01/27 01:06:50;;;;;;;;;;;;;;;-5.44;73.08;99223.53;5045963;28;20011;-78
2022/01/27 01:14:45;;;;;;;;;;;;;;;-5.51;73.50;99219.81;5047906;28;19923;-77
2022/01/27 01:33:26;;;;;;;;;;;;;;;-5.65;73.88;99229.19;5027816;28;20381;-77
2022/01/27 01:36:01;;;;;;;;;;;;;;;-5.66;74.56;99232.50;5045663;28;19924;-77
2022/01/27 01:38:29;;;;;;;;;;;;;;;-5.62;74.94;99231.88;5044813;28;19917;-78
2022/01/27 01:40:56;;;;;;;;;;;;;;;-5.66;74.18;99224.06;5013971;28;19913;-79
2022/01/27 01:43:22;;;;;;;;;;;;;;;-5.64;74.44;99233.44;5015639;28;19918;-78
2022/01/27 01:45:47;;;;;;;;;;;;;;;-5.71;74.68;99228.88;5013027;28;19933;-78
2022/01/27 01:48:16;;;;;;;;;;;;;;;-5.68;75.29;99224.00;5013999;28;19920;-79
2022/01/27 01:50:42;;;;;;;;;;;;;;;-5.64;74.73;99223.34;5047128;28;20484;-80
2022/01/27 01:53:08;;;;;;;;;;;;;;;-5.56;74.09;99215.31;5014117;28;19917;-79
2022/01/27 01:55:34;;;;;;;;;;;;;;;-5.44;74.27;99221.00;5047749;28;20299;-79
2022/01/27 01:57:59;;;;;;;;;;;;;;;-5.40;73.93;99222.91;5047487;28;19920;-79
2022/01/27 02:00:25;;;;;;;;;;;;;;;-5.33;73.46;99222.41;5015710;28;19963;-78
2022/01/27 02:02:50;;;;;;;;;;;;;;;-5.40;72.92;99215.31;5047153;28;20661;-78
2022/01/27 02:05:23;;;;;;;;;;;;;;;-5.39;73.20;99217.91;5046934;28;20448;-78
2022/01/27 02:07:59;;;;;;;;;;;;;;;-5.41;73.08;99211.03;5014951;28;20375;-78
2022/01/27 02:18:25;;;;;;;;;;;;;;;-5.60;72.65;99206.69;5031511;28;19923;-78
2022/01/27 02:20:51;;;;;;;;;;;;;;;-5.67;73.24;99208.03;5047238;28;19913;-79
2022/01/27 02:23:17;;;;;;;;;;;;;;;-5.71;73.51;99203.63;5013766;28;19924;-78
2022/01/27 02:25:42;;;;;;;;;;;;;;;-5.72;72.98;99195.97;5014702;28;19964;-79
2022/01/27 02:28:08;;;;;;;;;;;;;;;-5.70;73.38;99195.22;5014541;28;19917;-79
2022/01/27 02:30:33;;;;;;;;;;;;;;;-5.70;72.73;99200.28;5046443;28;20343;-79
2022/01/27 02:32:59;;;;;;;;;;;;;;;-5.68;72.75;99200.34;5046546;28;19921;-79
2022/01/27 02:35:26;;;;;;;;;;;;;;;-5.75;73.65;99199.19;5046481;28;19924;-79
2022/01/27 02:37:51;;;;;;;;;;;;;;;-5.79;73.94;99196.41;5015230;28;20408;-79
2022/01/27 02:40:26;;;;;;;;;;;;;;;-5.78;74.00;99201.53;5029877;28;19917;-79
2022/01/27 02:42:52;;;;;;;;;;;;;;;-5.78;73.91;99195.63;5014541;28;19917;-78
2022/01/27 02:45:18;;;;;;;;;;;;;;;-5.79;73.48;99197.28;5029579;28;19917;-79
2022/01/27 02:47:43;;;;;;;;;;;;;;;-5.82;73.33;99191.19;5029652;28;19921;-78
2022/01/27 02:50:09;;;;;;;;;;;;;;;-5.77;72.95;99183.09;5046132;28;19920;-76
2022/01/27 02:52:34;;;;;;;;;;;;;;;-5.71;72.13;99185.94;5046045;28;19917;-79
2022/01/27 02:55:00;;;;;;;;;;;;;;;-5.72;72.34;99186.72;5029306;28;20013;-78
2022/01/27 02:57:25;;;;;;;;;;;;;;;-5.70;72.57;99190.19;5013943;28;19917;-79
2022/01/27 02:59:51;;;;;;;;;;;;;;;-5.69;72.67;99181.81;5046180;28;19917;-79
2022/01/27 03:02:17;;;;;;;;;;;;;;;-5.57;71.56;99170.63;5029392;28;20400;-79
2022/01/27 03:04:42;;;;;;;;;;;;;;;-5.64;70.40;99179.53;5013931;28;19925;-78
2022/01/27 03:07:08;;;;;;;;;;;;;;;-5.69;70.51;99176.75;5029223;28;19921;-79
2022/01/27 03:09:34;;;;;;;;;;;;;;;-5.76;70.41;99184.81;5028625;28;20035;-79
2022/01/27 03:12:00;;;;;;;;;;;;;;;-5.81;70.52;99190.44;5029293;28;19920;-78
2022/01/27 03:14:26;;;;;;;;;;;;;;;-5.87;69.82;99185.91;5029355;28;19918;-77
2022/01/27 03:16:53;;;;;;;;;;;;;;;-5.95;67.85;99194.78;5029238;28;20016;-78
2022/01/27 03:19:19;;;;;;;;;;;;;;;-5.93;68.89;99178.91;5045692;28;19924;-78
2022/01/27 03:21:45;;;;;;;;;;;;;;;-5.80;68.64;99187.09;5029311;28;20296;-78
2022/01/27 03:24:10;;;;;;;;;;;;;;;-5.83;67.76;99190.31;5041120;28;20346;-78
2022/01/27 03:26:35;;;;;;;;;;;;;;;-5.92;67.32;99192.41;5033647;28;20405;-78
2022/01/27 03:29:01;;;;;;;;;;;;;;;-5.89;67.72;99187.47;5009366;28;19965;-78
2022/01/27 03:31:26;;;;;;;;;;;;;;;-5.80;67.04;99180.41;5035019;28;19913;-78
2022/01/27 03:33:52;;;;;;;;;;;;;;;-5.79;67.43;99174.53;5045639;28;19918;-78
2022/01/27 03:36:17;;;;;;;;;;;;;;;-5.80;67.00;99179.53;5045382;28;19921;-78
2022/01/27 03:38:43;;;;;;;;;;;;;;;-5.82;65.84;99176.91;5029129;28;19919;-78
2022/01/27 03:41:09;;;;;;;;;;;;;;;-5.83;65.28;99180.22;5045893;28;19918;-78
2022/01/27 03:43:35;;;;;;;;;;;;;;;-5.88;65.58;99182.50;5028348;28;19939;-78
2022/01/27 03:46:01;;;;;;;;;;;;;;;-5.91;65.63;99172.25;5044202;28;19921;-77
2022/01/27 03:48:26;;;;;;;;;;;;;;;-5.96;65.38;99173.69;5012278;28;19956;-76
2022/01/27 03:50:52;;;;;;;;;;;;;;;-6.05;66.01;99180.75;5012222;28;19919;-77
2022/01/27 03:53:17;;;;;;;;;;;;;;;-6.08;66.21;99179.75;5011973;28;19921;-79
2022/01/27 03:55:43;;;;;;;;;;;;;;;-6.16;66.40;99177.69;5012252;28;19917;-78
2022/01/27 03:58:08;;;;;;;;;;;;;;;-6.24;70.07;99175.53;5028551;28;19917;-78
2022/01/27 04:00:34;;;;;;;;;;;;;;;-6.48;71.73;99172.53;5011924;28;20291;-77
2022/01/27 04:03:05;;;;;;;;;;;;;;;-6.70;73.23;99170.47;5012817;28;20323;-76
2022/01/27 04:05:40;;;;;;;;;;;;;;;-6.83;73.55;99171.44;5011780;28;20382;-77
2022/01/27 04:08:06;;;;;;;;;;;;;;;-6.95;74.09;99174.16;4996168;28;19922;-76
2022/01/27 04:10:31;;;;;;;;;;;;;;;-7.03;75.34;99174.50;5012403;28;19936;-77
2022/01/27 04:12:57;;;;;;;;;;;;;;;-7.09;75.58;99172.50;5028142;28;19927;-76
2022/01/27 04:15:23;;;;;;;;;;;;;;;-7.16;74.51;99172.91;5044714;28;19924;-76
2022/01/27 04:17:48;;;;;;;;;;;;;;;-7.22;74.88;99170.91;5013105;28;20003;-76
2022/01/27 04:20:13;;;;;;;;;;;;;;;-7.22;76.38;99177.63;5044621;28;20368;-76
2022/01/27 04:22:39;;;;;;;;;;;;;;;-7.26;75.23;99171.53;5060972;28;19924;-75
2022/01/27 04:25:05;;;;;;;;;;;;;;;-7.29;76.52;99165.44;5028077;28;19913;-78
2022/01/27 04:27:33;;;;;;;;;;;;;;;-7.32;76.25;99170.31;5012752;28;19964;-78
2022/01/27 04:29:59;;;;;;;;;;;;;;;-7.35;75.82;99162.56;5012620;28;19917;-77
2022/01/27 04:32:32;;;;;;;;;;;;;;;-7.34;75.24;99161.78;5011829;28;19925;-77
2022/01/27 04:35:04;;;;;;;;;;;;;;;-7.40;76.15;99169.84;5011505;28;19944;-77
2022/01/27 04:37:34;;;;;;;;;;;;;;;-7.47;75.17;99172.78;5027104;28;19921;-77
2022/01/27 04:40:12;;;;;;;;;;;;;;;-7.59;76.56;99177.13;5027637;28;19917;-77
2022/01/27 04:42:56;;;;;;;;;;;;;;;-7.75;76.98;99182.88;5041138;28;19940;-77
2022/01/27 04:45:27;;;;;;;;;;;;;;;-7.81;76.43;99183.38;5039582;28;20304;-77
2022/01/27 04:48:02;;;;;;;;;;;;;;;-7.85;78.01;99180.59;5012679;28;19917;-78
2022/01/27 04:50:28;;;;;;;;;;;;;;;-7.91;77.22;99178.56;5012643;28;19926;-77
2022/01/27 04:52:55;;;;;;;;;;;;;;;-7.97;77.74;99173.16;5060954;28;19919;-76
2022/01/27 04:55:23;;;;;;;;;;;;;;;-8.07;77.39;99180.94;5044037;28;20282;-76
2022/01/27 04:57:55;;;;;;;;;;;;;;;-8.15;78.47;99175.44;5012679;28;19920;-76
2022/01/27 05:00:21;;;;;;;;;;;;;;;-8.24;77.56;99185.81;5042274;28;19925;-76
2022/01/27 05:02:56;;;;;;;;;;;;;;;-8.35;78.21;99186.78;5012539;28;19921;-76
2022/01/27 05:05:22;;;;;;;;;;;;;;;-8.39;79.25;99189.91;5041434;28;19918;-76
2022/01/27 05:08:00;;;;;;;;;;;;;;;-8.43;78.75;99190.47;5027963;28;20384;-79
2022/01/27 05:10:33;;;;;;;;;;;;;;;-8.43;79.58;99198.03;5011388;28;20039;-78
2022/01/27 05:13:09;;;;;;;;;;;;;;;-8.47;79.47;99191.09;5044689;28;19983;-77
2022/01/27 05:15:42;;;;;;;;;;;;;;;-8.49;79.50;99192.63;5041252;28;19940;-76
2022/01/27 05:18:08;;;;;;;;;;;;;;;-8.53;79.74;99195.72;5042467;28;20266;-77
2022/01/27 05:20:33;;;;;;;;;;;;;;;-8.57;79.10;99191.25;5046397;28;19920;-79
2022/01/27 05:22:59;;;;;;;;;;;;;;;-8.59;79.73;99195.34;5016253;28;19924;-77
2022/01/27 05:25:24;;;;;;;;;;;;;;;-8.62;79.54;99200.16;5016297;28;20269;-77
2022/01/27 05:27:50;;;;;;;;;;;;;;;-8.66;79.26;99194.06;5014923;28;19975;-78
2022/01/27 05:30:15;;;;;;;;;;;;;;;-8.62;79.72;99198.50;5031604;28;19921;-77
2022/01/27 05:32:40;;;;;;;;;;;;;;;-8.60;79.50;99193.59;5031114;28;19921;-79
2022/01/27 05:35:06;;;;;;;;;;;;;;;-8.60;79.18;99193.59;5032298;28;19956;-77
2022/01/27 05:37:32;;;;;;;;;;;;;;;-8.59;79.08;99196.22;5017059;28;19917;-77
2022/01/27 05:39:57;;;;;;;;;;;;;;;-8.62;78.69;99190.97;5016079;28;19979;-77
2022/01/27 05:42:22;;;;;;;;;;;;;;;-8.65;78.60;99192.44;5048005;28;19917;-77
2022/01/27 05:44:48;;;;;;;;;;;;;;;-8.67;78.51;99179.75;5016171;28;20016;-77
2022/01/27 05:47:14;;;;;;;;;;;;;;;-8.67;79.35;99182.28;5048095;28;20059;-78
2022/01/27 05:49:40;;;;;;;;;;;;;;;-8.65;78.45;99184.91;5016522;28;20325;-80
2022/01/27 05:52:05;;;;;;;;;;;;;;;-8.65;78.67;99179.88;5016098;28;19959;-78
2022/01/27 05:54:34;;;;;;;;;;;;;;;-8.66;77.95;99185.66;5047316;28;19917;-78
2022/01/27 05:56:59;;;;;;;;;;;;;;;-8.65;78.64;99185.78;5047487;28;20729;-77
2022/01/27 05:59:25;;;;;;;;;;;;;;;-8.63;78.43;99188.38;5031159;28;19925;-77
2022/01/27 06:01:50;;;;;;;;;;;;;;;-8.65;78.45;99188.28;5048018;28;19917;-78
2022/01/27 06:04:16;;;;;;;;;;;;;;;-8.67;77.87;99176.38;5047874;28;20020;-80
2022/01/27 06:06:41;;;;;;;;;;;;;;;-8.66;77.93;99170.56;5048180;28;19948;-80
2022/01/27 06:09:07;;;;;;;;;;;;;;;-8.71;77.67;99171.13;5016257;28;20438;-76
2022/01/27 06:11:33;;;;;;;;;;;;;;;-8.76;78.40;99166.59;5047701;28;20280;-81
2022/01/27 06:13:58;;;;;;;;;;;;;;;-8.74;77.62;99170.97;5014556;28;19921;-78
2022/01/27 06:16:24;;;;;;;;;;;;;;;-8.74;77.93;99172.63;5015653;28;20012;-79
2022/01/27 06:18:49;;;;;;;;;;;;;;;-8.71;77.63;99176.16;5015916;28;19936;-79
2022/01/27 06:21:17;;;;;;;;;;;;;;;-8.74;77.13;99170.97;5047544;28;19918;-78
2022/01/27 06:23:42;;;;;;;;;;;;;;;-8.69;77.78;99163.72;5014227;28;20355;-78
2022/01/27 06:26:08;;;;;;;;;;;;;;;-8.67;77.67;99162.16;5015195;28;19979;-77
2022/01/27 06:28:33;;;;;;;;;;;;;;;-8.66;76.83;99158.00;5015420;28;19913;-77
2022/01/27 06:30:58;;;;;;;;;;;;;;;-8.68;77.68;99155.41;5047167;28;20016;-77
2022/01/27 06:33:24;;;;;;;;;;;;;;;-8.60;76.80;99153.38;5030209;28;19914;-79
2022/01/27 06:35:49;;;;;;;;;;;;;;;-8.61;77.54;99149.09;5015120;28;19917;-78
2022/01/27 06:38:17;;;;;;;;;;;;;;;-8.56;76.90;99155.31;5047186;28;19921;-78
2022/01/27 06:40:43;;;;;;;;;;;;;;;-8.57;77.29;99156.06;5014981;28;19992;-77
2022/01/27 06:43:08;;;;;;;;;;;;;;;-8.52;76.34;99158.13;5015352;28;19924;-80
2022/01/27 06:45:34;;;;;;;;;;;;;;;-8.47;77.14;99161.78;5030214;28;19917;-76
2022/01/27 06:47:59;;;;;;;;;;;;;;;-8.44;76.89;99166.09;5015160;28;20355;-77
2022/01/27 06:50:25;;;;;;;;;;;;;;;-8.37;76.64;99169.91;5047404;28;19917;-79
2022/01/27 06:52:50;;;;;;;;;;;;;;;-8.30;76.51;99175.34;5014866;28;20012;-77
2022/01/27 06:55:21;;;;;;;;;;;;;;;-8.19;76.30;99181.94;5014934;28;19940;-78
2022/01/27 06:57:46;;;;;;;;;;;;;;;-8.19;74.94;99179.41;5015281;28;19917;-78
2022/01/27 07:00:13;;;;;;;;;;;;;;;-8.22;76.00;99176.69;5014926;28;20303;-77
2022/01/27 07:02:39;;;;;;;;;;;;;;;-8.19;74.95;99179.41;5046666;28;20004;-81
2022/01/27 07:05:04;;;;;;;;;;;;;;;-8.12;75.19;99179.78;5014911;28;19922;-79
2022/01/27 07:07:30;;;;;;;;;;;;;;;-8.09;75.68;99178.31;5030121;28;19921;-80
2022/01/27 07:09:55;;;;;;;;;;;;;;;-8.05;74.51;99171.84;5013667;28;19936;-77
2022/01/27 07:12:22;;;;;;;;;;;;;;;-7.99;74.69;99177.22;5014860;28;19921;-76
2022/01/27 07:14:47;;;;;;;;;;;;;;;-7.89;74.46;99181.19;5030096;28;19917;-78
2022/01/27 07:17:14;;;;;;;;;;;;;;;-7.76;74.15;99182.00;5046920;28;19924;-76
2022/01/27 07:19:39;;;;;;;;;;;;;;;-7.72;73.78;99178.91;5014460;28;19913;-77
2022/01/27 07:22:05;;;;;;;;;;;;;;;-7.63;74.53;99175.19;5014718;28;20087;-75
2022/01/27 07:24:30;;;;;;;;;;;;;;;-7.50;74.23;99170.97;5029782;28;20656;-78
2022/01/27 07:26:56;;;;;;;;;;;;;;;-7.39;73.90;99168.19;5045929;28;20294;-76
2022/01/27 07:29:21;;;;;;;;;;;;;;;-7.33;74.22;99168.53;5014698;28;19913;-76
2022/01/27 07:31:47;;;;;;;;;;;;;;;-7.26;72.58;99158.91;5014420;28;20396;-77
2022/01/27 07:34:12;;;;;;;;;;;;;;;-7.17;73.32;99156.06;5014028;28;19914;-76
2022/01/27 07:36:40;;;;;;;;;;;;;;;-7.09;71.81;99156.50;5014465;28;19933;-78
2022/01/27 07:39:12;;;;;;;;;;;;;;;-7.07;71.72;99155.78;5045945;28;19917;-81
2022/01/27 07:41:37;;;;;;;;;;;;;;;-6.94;71.49;99149.81;5044362;28;20013;-78
2022/01/27 07:44:03;;;;;;;;;;;;;;;-6.87;70.90;99154.44;5045124;28;20384;-78
2022/01/27 07:46:28;;;;;;;;;;;;;;;-6.78;72.00;99156.56;5013068;28;20372;-77
2022/01/27 07:48:54;;;;;;;;;;;;;;;-6.68;70.57;99159.69;5014136;28;19920;-78
2022/01/27 07:51:20;;;;;;;;;;;;;;;-6.62;70.87;99160.81;5013780;28;19917;-76
2022/01/27 07:53:45;;;;;;;;;;;;;;;-6.58;69.65;99158.56;5029173;28;19913;-77
2022/01/27 07:56:11;;;;;;;;;;;;;;;-6.52;70.05;99151.31;5045772;28;19917;-79
2022/01/27 07:58:38;;;;;;;;;;;;;;;-6.44;70.24;99151.75;5046126;28;19913;-78
2022/01/27 08:01:04;;;;;;;;;;;;;;;-6.41;69.99;99154.44;5045449;28;20015;-77
2022/01/27 08:03:29;;;;;;;;;;;;;;;-6.33;69.29;99153.19;5045497;28;19960;-77
2022/01/27 08:05:55;;;;;;;;;;;;;;;-6.33;69.04;99157.34;5013414;28;19921;-77
2022/01/27 08:08:20;;;;;;;;;;;;;;;-6.26;69.55;99139.25;5013978;28;19925;-78
2022/01/27 08:10:48;;;;;;;;;;;;;;;-6.24;68.43;99142.72;5045767;28;19921;-77
2022/01/27 08:13:13;;;;;;;;;;;;;;;-6.19;68.50;99142.16;5013812;28;19920;-77
2022/01/27 08:15:39;;;;;;;;;;;;;;;-6.12;68.17;99138.31;5045430;28;20347;-79
2022/01/27 08:18:04;;;;;;;;;;;;;;;-6.11;67.45;99141.72;5045580;28;20440;-77
2022/01/27 08:20:30;;;;;;;;;;;;;;;-6.08;68.44;99139.34;5012800;28;19917;-78
2022/01/27 08:22:56;;;;;;;;;;;;;;;-6.20;68.22;99142.09;5013731;28;20002;-79
2022/01/27 08:25:22;;;;;;;;;;;;;;;-6.23;67.84;99135.25;5013102;28;19924;-78
2022/01/27 08:27:49;;;;;;;;;;;;;;;-6.17;68.20;99135.56;5045316;28;19921;-80
2022/01/27 08:30:17;;;;;;;;;;;;;;;-6.19;67.70;99127.00;5028343;28;19929;-76
2022/01/27 08:35:16;;;;;;;;;;;;;;;-6.25;68.04;99124.19;5044238;28;20698;-80
2022/01/27 08:37:41;;;;;;;;;;;;;;;-6.24;68.23;99122.50;5045716;28;20373;-77
2022/01/27 08:40:07;;;;;;;;;;;;;;;-6.19;67.98;99127.00;5013832;28;20020;-78
2022/01/27 08:42:32;;;;;;;;;;;;;;;-6.19;67.84;99116.06;5028915;28;19972;-78
2022/01/27 08:44:58;;;;;;;;;;;;;;;-6.22;68.14;99124.34;5045199;28;20019;-77
2022/01/27 08:47:24;;;;;;;;;;;;;;;-6.23;68.34;99124.25;5013288;28;19924;-76
2022/01/27 08:49:50;;;;;;;;;;;;;;;-6.20;67.91;99109.28;5044960;28;19922;-77
2022/01/27 08:52:15;;;;;;;;;;;;;;;-6.26;68.23;99119.06;5045068;28;19913;-78
2022/01/27 08:54:42;;;;;;;;;;;;;;;-6.22;68.31;99121.81;5045786;28;20399;-77
2022/01/27 08:57:07;;;;;;;;;;;;;;;-6.20;67.12;99122.75;5048912;28;19918;-77
2022/01/27 08:59:33;;;;;;;;;;;;;;;-6.18;68.39;99123.72;5015942;28;19917;-78
2022/01/27 09:01:59;;;;;;;;;;;;;;;-6.16;67.62;99117.09;5049114;28;19913;-79
2022/01/27 09:04:24;;;;;;;;;;;;;;;-6.16;68.00;99112.03;5032135;28;19988;-77
2022/01/27 09:06:50;;;;;;;;;;;;;;;-6.30;67.56;99125.59;5016952;28;20380;-79
2022/01/27 09:09:15;;;;;;;;;;;;;;;-6.21;68.30;99117.63;5032406;28;20363;-78
2022/01/27 09:11:46;;;;;;;;;;;;;;;-6.10;67.87;99118.19;5032061;28;19913;-78
2022/01/27 09:14:12;;;;;;;;;;;;;;;-6.07;67.38;99120.88;5031543;28;20288;-78
2022/01/27 09:16:38;;;;;;;;;;;;;;;-5.99;67.51;99112.94;5032150;28;19918;-79
2022/01/27 09:19:04;;;;;;;;;;;;;;;-5.97;66.74;99123.09;5016837;28;19924;-77
2022/01/27 09:21:40;;;;;;;;;;;;;;;-5.97;66.52;99113.88;5015832;28;19948;-76
2022/01/27 09:24:06;;;;;;;;;;;;;;;-5.87;66.97;99110.13;5048617;28;20308;-78
2022/01/27 09:29:06;;;;;;;;;;;;;;;-5.88;66.93;99109.25;5016569;28;19924;-78
2022/01/27 09:31:32;;;;;;;;;;;;;;;-5.87;66.23;99110.13;5032414;28;19914;-78
2022/01/27 09:33:57;;;;;;;;;;;;;;;-5.81;67.10;99104.53;5015172;28;20416;-77
2022/01/27 09:36:22;;;;;;;;;;;;;;;-5.78;66.01;99108.06;5016539;28;19913;-79
2022/01/27 09:38:48;;;;;;;;;;;;;;;-5.67;66.74;99091.81;5016424;28;20372;-78
2022/01/27 09:41:15;;;;;;;;;;;;;;;-5.62;66.85;99095.44;5016666;28;19917;-78
2022/01/27 09:43:41;;;;;;;;;;;;;;;-5.61;66.52;99098.84;5047997;28;19968;-78
2022/01/27 09:46:08;;;;;;;;;;;;;;;-5.67;66.01;99096.00;5016448;28;19956;-79
2022/01/27 09:48:40;;;;;;;;;;;;;;;-5.68;66.73;99107.78;5016138;28;19924;-78
2022/01/27 09:53:47;;;;;;;;;;;;;;;-5.57;66.12;99098.19;5002109;28;19917;-76
2022/01/27 09:56:12;;;;;;;;;;;;;;;-5.54;65.52;99102.53;5014943;28;19920;-76
2022/01/27 09:58:38;;;;;;;;;;;;;;;-5.65;64.86;99092.75;4995360;28;19917;-81
2022/01/27 10:01:04;;;;;;;;;;;;;;;-5.80;65.28;99089.47;5011881;28;20004;-78
2022/01/27 10:03:31;;;;;;;;;;;;;;;-5.80;65.30;99091.97;5011623;28;20012;-81
2022/01/27 10:06:11;;;;;;;;;;;;;;;-5.74;65.55;99082.19;5020006;28;19944;-78
2022/01/27 10:08:40;;;;;;;;;;;;;;;-5.66;64.77;99096.06;5027901;28;19921;-78
2022/01/27 10:11:14;;;;;;;;;;;;;;;-5.64;65.48;99081.84;5031318;28;19968;-78
2022/01/27 10:13:43;;;;;;;;;;;;;;;-5.48;64.69;99077.56;5031315;28;20011;-78
2022/01/27 10:16:11;;;;;;;;;;;;;;;-5.26;64.49;99072.78;5047404;28;19917;-78
2022/01/27 10:18:40;;;;;;;;;;;;;;;-5.05;63.21;99069.53;4996774;28;19960;-77
2022/01/27 10:21:06;;;;;;;;;;;;;;;-5.01;62.00;99071.44;5045709;28;20372;-78
2022/01/27 10:23:34;;;;;;;;;;;;;;;-4.90;61.51;99072.81;5030580;28;19923;-76
2022/01/27 10:26:11;;;;;;;;;;;;;;;-4.63;60.45;99061.44;5030619;28;19913;-79
2022/01/27 10:31:21;;;;;;;;;;;;;;;-4.52;58.92;99050.94;5027196;28;19921;-77
2022/01/27 10:34:01;;;;;;;;;;;;;;;-4.63;59.24;99058.03;5013747;28;19922;-78
2022/01/27 10:36:30;;;;;;;;;;;;;;;-4.72;59.23;99048.38;5029668;28;19967;-78
2022/01/27 10:38:57;;;;;;;;;;;;;;;-4.88;59.70;99041.72;5047126;28;20384;-79
2022/01/27 10:41:26;;;;;;;;;;;;;;;-4.99;59.83;99039.50;5030531;28;19920;-78
2022/01/27 10:44:03;;;;;;;;;;;;;;;-4.94;59.72;99043.97;5046803;28;19917;-78
2022/01/27 10:46:30;;;;;;;;;;;;;;;-5.04;59.84;99043.44;5027236;28;19921;-79
2022/01/27 10:51:35;;;;;;;;;;;;;;;-5.04;60.29;99028.28;5012275;28;20352;-78
2022/01/27 10:54:05;;;;;;;;;;;;;;;-4.91;61.00;99020.47;5045515;28;19924;-78
2022/01/27 10:56:35;;;;;;;;;;;;;;;-4.80;60.49;99029.44;5044310;28;19917;-78
2022/01/27 10:59:02;;;;;;;;;;;;;;;-4.70;60.83;99024.00;5046486;28;20307;-79
2022/01/27 11:01:29;;;;;;;;;;;;;;;-4.39;60.60;99027.91;5012368;28;20429;-78
2022/01/27 11:03:55;;;;;;;;;;;;;;;-3.97;57.93;99002.72;5027425;28;19928;-81
2022/01/27 11:06:23;;;;;;;;;;;;;;;-3.72;57.91;99015.63;5014227;28;19972;-78
2022/01/27 11:08:49;;;;;;;;;;;;;;;-3.42;56.10;99016.03;5014946;28;20288;-78
2022/01/27 11:11:14;;;;;;;;;;;;;;;-2.70;54.85;99005.28;5014878;28;19913;-77
2022/01/27 11:13:40;;;;;;;;;;;;;;;-2.49;53.04;99005.22;5030225;28;19918;-78
2022/01/27 11:16:11;;;;;;;;;;;;;;;-2.59;53.14;99024.34;5046675;28;19962;-78
2022/01/27 11:18:37;;;;;;;;;;;;;;;-2.22;51.83;99010.44;5029316;28;19921;-76
2022/01/27 11:21:10;;;;;;;;;;;;;;;-1.88;51.37;99007.41;5014645;28;19920;-76
2022/01/27 11:26:10;;;;;;;;;;;;;;;-2.24;50.56;99023.09;5044363;28;19929;-78
2022/01/27 11:28:36;;;;;;;;;;;;;;;-2.57;51.87;99023.59;5046377;28;19990;-77
2022/01/27 11:31:07;;;;;;;;;;;;;;;-2.81;52.82;99017.56;5014232;28;19924;-77
2022/01/27 11:33:33;;;;;;;;;;;;;;;-2.77;52.94;99024.50;5014533;28;19917;-79
2022/01/27 11:36:05;;;;;;;;;;;;;;;-2.81;52.51;99015.03;5046037;28;19918;-78
2022/01/27 11:38:30;;;;;;;;;;;;;;;-2.78;53.19;99010.09;5046074;28;19921;-76
2022/01/27 11:40:56;;;;;;;;;;;;;;;-2.55;52.68;99005.88;5014048;28;19972;-77
2022/01/27 11:43:25;;;;;;;;;;;;;;;-2.37;51.50;99000.59;5045889;28;19913;-78
2022/01/27 11:45:52;;;;;;;;;;;;;;;-2.07;52.08;98993.19;5045685;28;19928;-75
2022/01/27 11:48:21;;;;;;;;;;;;;;;-1.83;52.42;98998.28;5013837;28;20315;-76
2022/01/27 11:50:55;;;;;;;;;;;;;;;-1.43;51.16;99003.00;5013927;28;19964;-77
2022/01/27 11:53:30;;;;;;;;;;;;;;;-1.17;49.60;98996.22;5013615;28;19917;-76
2022/01/27 11:55:56;;;;;;;;;;;;;;;-1.75;50.79;98986.69;5013551;28;20447;-78
2022/01/27 11:58:22;;;;;;;;;;;;;;;-2.08;51.26;98984.72;5045379;28;19917;-76
2022/01/27 12:01:00;;;;;;;;;;;;;;;-2.48;53.31;98984.97;5028428;28;19963;-77
2022/01/27 12:03:26;;;;;;;;;;;;;;;-2.92;53.99;98990.94;5045211;28;19917;-76
2022/01/27 12:06:10;;;;;;;;;;;;;;;-3.07;54.71;98998.78;5028141;28;19932;-77
2022/01/27 12:08:35;;;;;;;;;;;;;;;-3.45;55.23;99002.34;5045117;28;19971;-78
2022/01/27 12:11:05;;;;;;;;;;;;;;;-3.95;57.29;98996.91;5045621;28;19913;-77
2022/01/27 12:13:42;;;;;;;;;;;;;;;-4.00;57.66;98994.97;5044597;28;19917;-76
2022/01/27 12:19:06;;;;;;;;;;;;;;;-4.37;58.80;98993.41;5014049;28;20384;-78
2022/01/27 12:21:32;;;;;;;;;;;;;;;-4.47;59.94;98988.72;5013919;28;20376;-79
2022/01/27 12:24:11;;;;;;;;;;;;;;;-4.40;59.79;98980.59;5045816;28;19917;-76
2022/01/27 12:26:55;;;;;;;;;;;;;;;-4.45;60.32;98982.06;5014021;28;19920;-77
2022/01/27 12:29:21;;;;;;;;;;;;;;;-4.49;59.64;98983.63;5013644;28;19921;-77
2022/01/27 12:31:46;;;;;;;;;;;;;;;-4.51;60.31;98980.13;5013577;28;19920;-78
2022/01/27 12:34:12;;;;;;;;;;;;;;;-4.52;61.07;98977.53;5013688;28;20427;-79
2022/01/27 12:36:37;;;;;;;;;;;;;;;-4.46;61.21;98966.00;5046159;28;19917;-82
2022/01/27 12:39:03;;;;;;;;;;;;;;;-4.49;60.79;98967.53;5045304;28;19917;-79
2022/01/27 12:41:35;;;;;;;;;;;;;;;-4.43;61.57;98971.22;5045846;28;20387;-78
2022/01/27 12:44:10;;;;;;;;;;;;;;;-3.99;60.77;98973.91;5030037;28;19924;-78
2022/01/27 12:46:36;;;;;;;;;;;;;;;-3.49;58.89;98977.66;5029387;28;19917;-78
2022/01/27 12:49:03;;;;;;;;;;;;;;;-3.33;57.02;98969.88;5029260;28;20296;-78
2022/01/27 12:51:46;;;;;;;;;;;;;;;-3.29;56.53;98973.41;5013834;28;20296;-77
2022/01/27 12:54:11;;;;;;;;;;;;;;;-3.48;56.97;98959.09;5029138;28;20382;-77
2022/01/27 12:56:37;;;;;;;;;;;;;;;-3.62;57.25;98956.03;5013246;28;19917;-78
2022/01/27 12:59:11;;;;;;;;;;;;;;;-3.72;57.72;98959.84;5013347;28;20037;-78
2022/01/27 13:01:37;;;;;;;;;;;;;;;-3.92;58.24;98963.25;5013288;28;19917;-76
2022/01/27 13:04:03;;;;;;;;;;;;;;;-4.06;58.41;98959.28;5012053;28;20407;-77
2022/01/27 13:06:29;;;;;;;;;;;;;;;-4.26;59.03;98955.88;5028695;28;19925;-77
2022/01/27 13:09:10;;;;;;;;;;;;;;;-4.39;59.33;98962.09;5028772;28;19955;-78
2022/01/27 13:11:39;;;;;;;;;;;;;;;-4.57;59.50;98951.16;5028680;28;19924;-78
2022/01/27 13:14:05;;;;;;;;;;;;;;;-4.64;60.00;98950.00;5013361;28;20468;-78
2022/01/27 13:16:38;;;;;;;;;;;;;;;-4.63;60.91;98944.16;5061878;28;19917;-76
2022/01/27 13:19:09;;;;;;;;;;;;;;;-4.64;60.31;98943.28;5028496;28;20323;-77
2022/01/27 13:21:37;;;;;;;;;;;;;;;-4.65;60.29;98941.56;5013594;28;19917;-77
2022/01/27 13:24:08;;;;;;;;;;;;;;;-4.67;61.40;98935.56;5013543;28;19913;-78
2022/01/27 13:26:34;;;;;;;;;;;;;;;-4.76;61.01;98935.16;5013226;28;19963;-78
2022/01/27 13:28:59;;;;;;;;;;;;;;;-4.84;61.70;98928.91;5045401;28;19956;-76
2022/01/27 13:31:25;;;;;;;;;;;;;;;-4.93;62.56;98921.75;5045378;28;19924;-79
2022/01/27 13:33:50;;;;;;;;;;;;;;;-4.96;63.43;98918.22;5012150;28;19914;-78
2022/01/27 13:36:16;;;;;;;;;;;;;;;-5.01;64.07;98923.06;5044795;28;19948;-78
2022/01/27 13:38:59;;;;;;;;;;;;;;;-5.09;64.55;98928.56;5013898;28;20348;-77
2022/01/27 13:41:27;;;;;;;;;;;;;;;-5.14;64.64;98921.63;5027430;28;20264;-80
2022/01/27 13:44:06;;;;;;;;;;;;;;;-5.16;64.75;98923.25;5031852;28;20353;-76
2022/01/27 13:46:38;;;;;;;;;;;;;;;-5.23;64.13;98922.88;5048954;28;19944;-77
2022/01/27 13:49:04;;;;;;;;;;;;;;;-5.31;62.60;98912.44;5017253;28;19917;-77